createdAt,value
2023-05-01T00:02:21.367Z,1.10
2023-05-01T00:04:49.486Z,1.17
2023-05-01T00:07:18.772Z,0.75
2023-05-01T00:09:47.030Z,1.10
2023-05-01T00:12:15.054Z,1.23
2023-05-01T00:14:43.375Z,1.25
2023-05-01T00:17:11.540Z,0.73
2023-05-01T00:19:39.632Z,1.17
2023-05-01T00:22:07.712Z,1.40
2023-05-01T00:24:35.729Z,0.80
2023-05-01T00:27:03.898Z,0.70
2023-05-01T00:29:32.169Z,0.55
2023-05-01T00:32:00.317Z,2.58
2023-05-01T00:34:28.385Z,2.88
2023-05-01T00:36:56.368Z,1.08
2023-05-01T00:39:24.495Z,1.50
2023-05-01T00:41:52.848Z,1.55
2023-05-01T00:44:20.900Z,1.23
2023-05-01T00:46:49.168Z,1.65
2023-05-01T00:49:35.936Z,1.05
2023-05-01T00:52:04.099Z,1.77
2023-05-01T00:54:32.087Z,1.98
2023-05-01T00:57:00.203Z,0.88
2023-05-01T00:59:28.139Z,0.40
2023-05-01T01:01:56.587Z,0.75
2023-05-01T01:04:25.044Z,1.02
2023-05-01T01:07:04.164Z,0.63
2023-05-01T01:09:37.224Z,2.40
2023-05-01T01:12:29.255Z,0.60
2023-05-01T01:15:20.738Z,0.40
2023-05-01T01:18:10.028Z,0.88
2023-05-01T01:21:01.863Z,1.02
2023-05-01T01:23:42.320Z,0.88
2023-05-01T01:26:48.051Z,0.68
2023-05-01T01:30:05.845Z,1.23
2023-05-01T01:35:54.115Z,1.23
2023-05-01T01:38:59.197Z,0.73
2023-05-01T01:41:32.021Z,2.10
2023-05-01T01:44:22.136Z,1.13
2023-05-01T01:46:53.457Z,1.05
2023-05-01T01:51:57.368Z,0.98
2023-05-01T01:54:31.787Z,1.45
2023-05-01T01:57:02.828Z,1.65
2023-05-01T01:59:33.960Z,1.30
2023-05-01T02:02:05.873Z,1.75
2023-05-01T02:04:36.871Z,1.33
2023-05-01T02:07:06.540Z,1.80
2023-05-01T02:09:36.717Z,1.30
2023-05-01T02:12:08.183Z,1.58
2023-05-01T02:17:24.368Z,1.55
2023-05-01T02:20:11.452Z,0.90
2023-05-01T02:22:42.180Z,0.95
2023-05-01T02:25:13.229Z,1.48
2023-05-01T02:27:47.431Z,1.63
2023-05-01T02:30:18.997Z,1.63
2023-05-01T02:32:47.584Z,1.15
2023-05-01T02:35:17.574Z,0.98
2023-05-01T02:37:46.639Z,1.25
2023-05-01T02:40:16.112Z,5.88
2023-05-01T02:42:46.086Z,1.25
2023-05-01T02:45:24.087Z,0.77
2023-05-01T02:47:54.851Z,0.70
2023-05-01T02:50:24.182Z,2.17
2023-05-01T02:52:52.543Z,3.05
2023-05-01T02:55:51.680Z,1.20
2023-05-01T02:58:20.588Z,1.27
2023-05-01T03:00:50.214Z,2.58
2023-05-01T03:03:19.970Z,1.35
2023-05-01T03:05:48.225Z,2.13
2023-05-01T03:08:16.282Z,1.00
2023-05-01T03:10:44.553Z,0.60
2023-05-01T03:13:12.764Z,1.63
2023-05-01T03:15:41.472Z,0.82
2023-05-01T03:18:09.812Z,1.33
2023-05-01T03:20:38.044Z,1.65
2023-05-01T03:23:07.046Z,1.02
2023-05-01T03:25:35.067Z,0.73
2023-05-01T03:28:03.163Z,0.65
2023-05-01T03:30:34.467Z,0.63
2023-05-01T03:33:03.478Z,0.65
2023-05-01T03:35:33.770Z,0.80
2023-05-01T03:38:02.025Z,0.63
2023-05-01T03:40:55.964Z,1.10
2023-05-01T03:43:56.489Z,0.90
2023-05-01T03:46:35.084Z,1.98
2023-05-01T03:49:04.097Z,0.70
2023-05-01T03:51:36.126Z,0.98
2023-05-01T03:54:04.484Z,0.57
2023-05-01T03:56:42.578Z,1.73
2023-05-01T03:59:11.189Z,0.85
2023-05-01T04:01:40.135Z,1.30
2023-05-01T04:04:08.447Z,0.30
2023-05-01T04:06:38.147Z,0.77
2023-05-01T04:09:08.499Z,1.88
2023-05-01T04:11:36.494Z,0.57
2023-05-01T04:14:04.545Z,2.03
2023-05-01T04:16:32.714Z,0.30
2023-05-01T04:19:01.019Z,0.55
2023-05-01T04:21:29.164Z,0.77
2023-05-01T04:24:15.745Z,0.32
2023-05-01T04:26:43.851Z,0.40
2023-05-01T04:29:11.928Z,1.70
2023-05-01T04:31:41.934Z,0.40
2023-05-01T04:34:10.669Z,0.73
2023-05-01T04:36:39.850Z,1.02
2023-05-01T04:39:08.027Z,1.35
2023-05-01T04:44:21.715Z,1.45
2023-05-01T04:46:50.111Z,3.83
2023-05-01T04:49:18.284Z,0.65
2023-05-01T04:51:46.726Z,1.20
2023-05-01T04:54:16.621Z,1.45
2023-05-01T04:56:45.228Z,1.83
2023-05-01T04:59:13.547Z,1.00
2023-05-01T05:01:41.776Z,0.73
2023-05-01T05:04:09.983Z,0.80
2023-05-01T05:06:38.260Z,1.05
2023-05-01T05:09:09.590Z,2.85
2023-05-01T05:11:37.613Z,1.27
2023-05-01T05:14:10.754Z,1.73
2023-05-01T05:16:39.122Z,1.50
2023-05-01T05:19:07.254Z,3.33
2023-05-01T05:21:39.166Z,0.80
2023-05-01T05:24:07.176Z,0.40
2023-05-01T05:26:35.256Z,2.17
2023-05-01T05:29:04.982Z,0.70
2023-05-01T05:31:33.385Z,2.63
2023-05-01T05:34:01.425Z,1.85
2023-05-01T05:36:30.391Z,0.88
2023-05-01T05:39:00.092Z,0.95
2023-05-01T05:41:28.115Z,0.57
2023-05-01T05:44:00.004Z,1.15
2023-05-01T05:46:28.601Z,1.10
2023-05-01T05:48:57.163Z,0.98
2023-05-01T05:51:26.823Z,1.55
2023-05-01T05:53:55.324Z,0.85
2023-05-01T05:56:24.648Z,0.30
2023-05-01T05:58:53.199Z,0.70
2023-05-01T06:01:21.694Z,0.70
2023-05-01T06:03:49.714Z,0.55
2023-05-01T06:06:18.103Z,1.88
2023-05-01T06:08:46.578Z,3.17
2023-05-01T06:11:14.634Z,1.65
2023-05-01T06:13:42.678Z,1.02
2023-05-01T06:16:11.347Z,0.50
2023-05-01T06:18:39.421Z,0.70
2023-05-01T06:21:07.897Z,3.10
2023-05-01T06:23:36.416Z,0.52
2023-05-01T06:26:23.592Z,1.27
2023-05-01T06:28:51.700Z,1.42
2023-05-01T06:31:19.853Z,0.93
2023-05-01T06:34:06.508Z,1.10
2023-05-01T06:36:47.043Z,0.95
2023-05-01T06:39:15.112Z,0.40
2023-05-01T06:41:46.061Z,2.08
2023-05-01T06:44:16.002Z,1.40
2023-05-01T06:46:44.132Z,1.00
2023-05-01T06:49:13.189Z,0.57
2023-05-01T06:51:41.467Z,0.50
2023-05-01T06:54:09.599Z,4.50
2023-05-01T06:56:37.639Z,0.85
2023-05-01T06:59:06.160Z,0.85
2023-05-01T07:01:35.631Z,1.65
2023-05-01T07:04:04.349Z,0.60
2023-05-01T07:06:32.984Z,1.15
2023-05-01T07:09:00.977Z,2.95
2023-05-01T07:11:29.373Z,1.17
2023-05-01T07:13:57.376Z,1.25
2023-05-01T07:19:10.931Z,0.50
2023-05-01T07:21:39.474Z,1.77
2023-05-01T07:24:07.627Z,0.40
2023-05-01T07:26:35.629Z,0.82
2023-05-01T07:29:04.611Z,1.42
2023-05-01T07:31:32.655Z,0.30
2023-05-01T07:34:01.239Z,2.38
2023-05-01T07:36:30.129Z,1.27
2023-05-01T07:38:58.203Z,0.82
2023-05-01T07:41:26.981Z,1.00
2023-05-01T07:43:54.998Z,0.68
2023-05-01T07:46:42.073Z,5.25
2023-05-01T07:49:28.849Z,0.50
2023-05-01T07:51:56.908Z,0.63
2023-05-01T07:54:25.015Z,0.73
2023-05-01T07:57:11.699Z,0.63
2023-05-01T07:59:39.659Z,0.50
2023-05-01T08:02:07.736Z,1.33
2023-05-01T08:04:36.027Z,1.25
2023-05-01T08:07:04.242Z,0.70
2023-05-01T08:09:32.372Z,2.83
2023-05-01T08:12:00.833Z,0.98
2023-05-01T08:14:28.789Z,2.70
2023-05-01T08:16:56.843Z,2.33
2023-05-01T08:19:25.527Z,1.48
2023-05-01T08:21:53.855Z,2.22
2023-05-01T08:24:21.896Z,1.02
2023-05-01T08:27:09.238Z,2.90
2023-05-01T08:29:37.307Z,2.60
2023-05-01T08:32:05.479Z,6.40
2023-05-01T08:34:33.845Z,2.85
2023-05-01T08:37:01.846Z,4.65
2023-05-01T08:39:29.962Z,6.72
2023-05-01T08:42:17.406Z,5.53
2023-05-01T08:44:47.512Z,3.15
2023-05-01T08:47:19.381Z,2.53
2023-05-01T08:49:51.163Z,6.03
2023-05-01T08:52:43.382Z,4.75
2023-05-01T08:55:15.987Z,4.45
2023-05-01T08:57:48.352Z,4.63
2023-05-01T09:00:21.317Z,4.97
2023-05-01T09:02:51.058Z,7.03
2023-05-01T09:05:21.217Z,4.20
2023-05-01T09:07:49.697Z,7.13
2023-05-01T09:10:19.352Z,5.72
2023-05-01T09:13:10.311Z,5.22
2023-05-01T09:15:38.779Z,5.25
2023-05-01T09:18:09.469Z,4.60
2023-05-01T09:20:38.121Z,4.47
2023-05-01T09:23:06.679Z,6.32
2023-05-01T09:25:34.799Z,2.78
2023-05-01T09:28:05.835Z,3.30
2023-05-01T09:30:38.616Z,5.05
2023-05-01T09:33:06.792Z,3.55
2023-05-01T09:35:55.312Z,5.18
2023-05-01T09:38:27.401Z,4.38
2023-05-01T09:41:03.626Z,5.95
2023-05-01T09:43:32.066Z,4.43
2023-05-01T09:46:09.918Z,2.90
2023-05-01T09:48:38.779Z,2.90
2023-05-01T09:51:29.480Z,1.23
2023-05-01T09:54:03.117Z,1.92
2023-05-01T09:56:34.716Z,3.08
2023-05-01T09:59:20.470Z,3.03
2023-05-01T10:01:50.815Z,3.38
2023-05-01T10:04:30.696Z,1.90
2023-05-01T10:07:00.731Z,1.58
2023-05-01T10:09:30.122Z,2.10
2023-05-01T10:11:59.371Z,1.73
2023-05-01T10:14:56.842Z,1.08
2023-05-01T10:17:24.916Z,4.00
2023-05-01T10:19:53.320Z,6.38
2023-05-01T10:22:41.327Z,4.43
2023-05-01T10:25:12.281Z,6.38
2023-05-01T10:27:41.550Z,2.90
2023-05-01T10:30:10.510Z,2.47
2023-05-01T10:32:41.259Z,2.30
2023-05-01T10:35:14.784Z,3.00
2023-05-01T10:37:49.391Z,3.05
2023-05-01T10:40:48.573Z,3.47
2023-05-01T10:43:26.031Z,3.13
2023-05-01T10:45:55.500Z,2.63
2023-05-01T10:48:38.884Z,2.60
2023-05-01T10:51:18.130Z,3.28
2023-05-01T10:53:47.609Z,1.33
2023-05-01T10:56:30.626Z,1.92
2023-05-01T10:59:06.223Z,1.98
2023-05-01T11:01:35.501Z,3.28
2023-05-01T11:04:05.860Z,1.92
2023-05-01T11:06:34.679Z,1.58
2023-05-01T11:09:03.169Z,2.95
2023-05-01T11:11:31.172Z,3.17
2023-05-01T11:14:05.752Z,2.05
2023-05-01T11:16:42.407Z,1.80
2023-05-01T11:19:36.659Z,1.92
2023-05-01T11:22:13.205Z,3.13
2023-05-01T11:27:13.283Z,2.53
2023-05-01T11:29:44.574Z,3.72
2023-05-01T11:32:20.149Z,3.25
2023-05-01T11:34:49.873Z,1.80
2023-05-01T11:37:18.189Z,2.03
2023-05-01T11:39:50.628Z,3.08
2023-05-01T11:42:22.754Z,1.88
2023-05-01T11:45:11.359Z,2.90
2023-05-01T11:50:09.103Z,2.45
2023-05-01T11:52:45.150Z,2.10
2023-05-01T11:55:13.250Z,3.25
2023-05-01T12:00:42.082Z,3.63
2023-05-01T12:03:14.734Z,3.45
2023-05-01T12:05:45.455Z,3.40
2023-05-01T12:08:15.978Z,2.10
2023-05-01T12:10:45.127Z,2.35
2023-05-01T12:13:14.661Z,2.08
2023-05-01T12:16:01.526Z,2.88
2023-05-01T12:18:29.622Z,4.93
2023-05-01T12:20:57.719Z,2.67
2023-05-01T12:23:34.608Z,2.40
2023-05-01T12:26:05.306Z,2.42
2023-05-01T12:28:33.477Z,1.10
2023-05-01T12:31:05.254Z,1.08
2023-05-01T12:33:36.919Z,6.10
2023-05-01T12:36:14.622Z,2.95
2023-05-01T12:38:55.929Z,1.88
2023-05-01T12:41:39.101Z,6.50
2023-05-01T12:44:25.970Z,10.52
2023-05-01T12:47:01.362Z,13.90
2023-05-01T12:49:31.813Z,8.85
2023-05-01T12:52:01.364Z,3.58
2023-05-01T12:54:33.049Z,1.95
2023-05-01T12:57:11.645Z,3.65
2023-05-01T12:59:40.966Z,3.92
2023-05-01T13:02:12.882Z,1.50
2023-05-01T13:04:41.850Z,2.55
2023-05-01T13:07:15.313Z,2.40
2023-05-01T13:09:54.631Z,2.80
2023-05-01T13:12:23.650Z,3.78
2023-05-01T13:14:52.300Z,2.83
2023-05-01T13:17:39.106Z,4.47
2023-05-01T13:20:07.854Z,0.95
2023-05-01T13:22:37.709Z,1.63
2023-05-01T13:25:17.647Z,4.38
2023-05-01T13:27:53.427Z,2.38
2023-05-01T13:30:33.229Z,2.15
2023-05-01T13:33:02.185Z,1.77
2023-05-01T13:35:31.123Z,2.53
2023-05-01T13:37:59.248Z,4.03
2023-05-01T13:40:28.283Z,2.95
2023-05-01T13:42:56.386Z,2.60
2023-05-01T13:48:11.113Z,2.10
2023-05-01T13:50:42.550Z,3.30
2023-05-01T13:53:10.540Z,2.50
2023-05-01T13:55:41.103Z,2.25
2023-05-01T13:58:11.795Z,3.72
2023-05-01T14:00:40.410Z,4.25
2023-05-01T14:03:11.397Z,4.00
2023-05-01T14:05:40.700Z,1.23
2023-05-01T14:08:12.072Z,2.47
2023-05-01T14:10:40.081Z,2.75
2023-05-01T14:13:08.206Z,1.05
2023-05-01T14:15:36.369Z,2.10
2023-05-01T14:18:07.508Z,4.00
2023-05-01T14:20:39.562Z,2.25
2023-05-01T14:23:07.716Z,2.97
2023-05-01T14:25:36.422Z,1.10
2023-05-01T14:28:12.524Z,2.22
2023-05-01T14:30:41.622Z,3.40
2023-05-01T14:33:13.552Z,1.85
2023-05-01T14:35:50.076Z,2.22
2023-05-01T14:38:20.078Z,4.00
2023-05-01T14:40:49.033Z,2.92
2023-05-01T14:43:18.810Z,3.47
2023-05-01T14:45:49.313Z,1.67
2023-05-01T14:48:23.310Z,1.80
2023-05-01T14:50:53.023Z,1.27
2023-05-01T14:53:23.922Z,2.15
2023-05-01T14:55:52.199Z,1.80
2023-05-01T14:58:20.407Z,0.98
2023-05-01T15:00:48.497Z,2.88
2023-05-01T15:03:16.739Z,2.20
2023-05-01T15:06:04.480Z,2.30
2023-05-01T15:08:33.475Z,1.52
2023-05-01T15:11:01.588Z,1.75
2023-05-01T15:13:32.054Z,1.50
2023-05-01T15:16:00.779Z,0.77
2023-05-01T15:18:28.775Z,1.00
2023-05-01T15:20:56.835Z,3.92
2023-05-01T15:23:27.492Z,1.40
2023-05-01T15:25:55.549Z,2.03
2023-05-01T15:28:24.952Z,3.22
2023-05-01T15:30:53.428Z,2.28
2023-05-01T15:33:21.542Z,1.02
2023-05-01T15:35:51.351Z,2.10
2023-05-01T15:38:21.226Z,1.60
2023-05-01T15:40:50.341Z,1.45
2023-05-01T15:43:18.325Z,2.70
2023-05-01T15:45:46.397Z,1.73
2023-05-01T15:48:14.440Z,4.93
2023-05-01T15:50:42.523Z,2.17
2023-05-01T15:53:10.650Z,2.63
2023-05-01T15:55:38.775Z,0.73
2023-05-01T15:58:06.858Z,3.60
2023-05-01T16:00:38.414Z,2.45
2023-05-01T16:03:08.165Z,1.65
2023-05-01T16:05:37.441Z,2.53
2023-05-01T16:08:06.681Z,0.82
2023-05-01T16:10:37.456Z,1.10
2023-05-01T16:13:09.046Z,0.20
2023-05-01T16:15:37.563Z,0.70
2023-05-01T16:18:06.335Z,0.17
2023-05-01T16:20:41.652Z,2.45
2023-05-01T16:23:09.905Z,0.95
2023-05-01T16:25:42.780Z,1.33
2023-05-01T16:28:12.661Z,1.67
2023-05-01T16:30:44.124Z,1.38
2023-05-01T16:33:20.092Z,1.70
2023-05-01T16:35:49.801Z,0.63
2023-05-01T16:38:18.794Z,2.33
2023-05-01T16:40:48.439Z,3.03
2023-05-01T16:43:16.802Z,2.17
2023-05-01T16:45:44.954Z,1.27
2023-05-01T16:48:20.072Z,2.53
2023-05-01T16:50:48.382Z,2.58
2023-05-01T16:53:16.452Z,0.70
2023-05-01T16:55:44.867Z,2.72
2023-05-01T16:58:12.955Z,1.30
2023-05-01T17:00:41.572Z,3.17
2023-05-01T17:03:09.750Z,0.95
2023-05-01T17:05:37.818Z,3.47
2023-05-01T17:08:06.514Z,2.30
2023-05-01T17:10:34.692Z,1.30
2023-05-01T17:13:02.723Z,2.08
2023-05-01T17:15:30.850Z,2.88
2023-05-01T17:17:59.012Z,2.58
2023-05-01T17:20:45.518Z,1.08
2023-05-01T17:23:13.544Z,1.55
2023-05-01T17:25:41.569Z,2.00
2023-05-01T17:28:09.867Z,1.00
2023-05-01T17:30:37.890Z,2.50
2023-05-01T17:33:06.175Z,1.75
2023-05-01T17:35:34.556Z,2.17
2023-05-01T17:38:02.664Z,2.42
2023-05-01T17:40:30.896Z,2.28
2023-05-01T17:42:59.373Z,2.22
2023-05-01T17:45:27.412Z,1.40
2023-05-01T17:47:55.469Z,4.25
2023-05-01T17:50:23.945Z,1.08
2023-05-01T17:52:52.218Z,1.88
2023-05-01T17:55:39.247Z,1.80
2023-05-01T17:58:07.402Z,1.00
2023-05-01T18:03:40.387Z,1.48
2023-05-01T18:06:08.706Z,2.90
2023-05-01T18:08:36.875Z,2.58
2023-05-01T18:11:04.908Z,1.52
2023-05-01T18:13:38.233Z,2.70
2023-05-01T18:16:06.404Z,2.15
2023-05-01T18:18:34.409Z,4.75
2023-05-01T18:21:02.610Z,2.97
2023-05-01T18:23:30.605Z,1.98
2023-05-01T18:25:58.890Z,4.07
2023-05-01T18:28:27.256Z,3.97
2023-05-01T18:30:55.368Z,0.93
2023-05-01T18:33:23.552Z,2.33
2023-05-01T18:35:51.687Z,4.25
2023-05-01T18:38:19.697Z,2.45
2023-05-01T18:40:48.091Z,2.05
2023-05-01T18:43:16.214Z,4.20
2023-05-01T18:45:44.314Z,3.95
2023-05-01T18:48:12.407Z,3.08
2023-05-01T18:50:40.550Z,1.60
2023-05-01T18:53:27.348Z,2.72
2023-05-01T18:55:55.578Z,0.85
2023-05-01T18:58:23.634Z,2.47
2023-05-01T19:00:51.725Z,2.28
2023-05-01T19:03:19.947Z,1.98
2023-05-01T19:05:48.089Z,2.03
2023-05-01T19:08:34.844Z,2.67
2023-05-01T19:11:03.204Z,4.15
2023-05-01T19:13:31.281Z,0.60
2023-05-01T19:15:59.446Z,1.67
2023-05-01T19:18:27.514Z,2.65
2023-05-01T19:20:55.515Z,2.17
2023-05-01T19:23:23.606Z,3.47
2023-05-01T19:25:51.627Z,2.05
2023-05-01T19:28:19.650Z,3.08
2023-05-01T19:30:47.772Z,4.95
2023-05-01T19:33:16.165Z,5.05
2023-05-01T19:35:44.393Z,3.53
2023-05-01T19:38:12.381Z,5.90
2023-05-01T19:40:42.500Z,7.05
2023-05-01T19:43:10.680Z,4.43
2023-05-01T19:45:38.839Z,8.07
2023-05-01T19:48:07.378Z,3.85
2023-05-01T19:50:35.848Z,5.88
2023-05-01T19:53:05.514Z,4.03
2023-05-01T19:55:33.833Z,6.55
2023-05-01T19:58:03.531Z,4.00
2023-05-01T20:00:31.566Z,6.13
2023-05-01T20:03:00.578Z,2.80
2023-05-01T20:05:29.943Z,5.85
2023-05-01T20:08:00.672Z,4.57
2023-05-01T20:10:28.836Z,2.70
2023-05-01T20:12:56.867Z,4.85
2023-05-01T20:15:24.912Z,4.90
2023-05-01T20:17:53.005Z,4.80
2023-05-01T20:20:21.155Z,4.18
2023-05-01T20:22:51.859Z,7.90
2023-05-01T20:25:19.995Z,5.45
2023-05-01T20:27:48.014Z,4.72
2023-05-01T20:30:16.016Z,3.95
2023-05-01T20:32:44.584Z,3.63
2023-05-01T20:35:12.620Z,3.15
2023-05-01T20:37:41.234Z,4.78
2023-05-01T20:40:11.808Z,4.03
2023-05-01T20:42:40.121Z,5.03
2023-05-01T20:45:09.098Z,7.10
2023-05-01T20:47:37.133Z,3.25
2023-05-01T20:50:05.502Z,7.32
2023-05-01T20:52:33.742Z,7.63
2023-05-01T20:55:01.787Z,6.63
2023-05-01T20:57:29.927Z,3.13
2023-05-01T20:59:58.160Z,5.35
2023-05-01T21:02:44.903Z,4.57
2023-05-01T21:05:13.560Z,7.35
2023-05-01T21:07:41.839Z,2.20
2023-05-01T21:10:11.259Z,5.03
2023-05-01T21:12:40.006Z,6.28
2023-05-01T21:15:09.061Z,2.83
2023-05-01T21:17:39.692Z,6.82
2023-05-01T21:20:25.929Z,4.10
2023-05-01T21:22:54.030Z,4.18
2023-05-01T21:25:27.571Z,3.95
2023-05-01T21:27:56.230Z,4.10
2023-05-01T21:30:33.305Z,1.95
2023-05-01T21:33:03.117Z,2.38
2023-05-01T21:35:31.721Z,3.33
2023-05-01T21:38:00.609Z,1.95
2023-05-01T21:40:28.794Z,2.58
2023-05-01T21:42:56.855Z,1.08
2023-05-01T21:45:25.189Z,2.67
2023-05-01T21:47:53.256Z,5.22
2023-05-01T21:50:21.764Z,1.83
2023-05-01T21:52:50.714Z,2.20
2023-05-01T21:55:37.965Z,1.20
2023-05-01T21:58:06.191Z,1.83
2023-05-01T22:00:34.260Z,1.55
2023-05-01T22:03:07.181Z,6.07
2023-05-01T22:05:35.458Z,2.70
2023-05-01T22:08:03.447Z,1.67
2023-05-01T22:10:31.892Z,3.83
2023-05-01T22:12:59.824Z,1.35
2023-05-01T22:15:27.978Z,2.13
2023-05-01T22:18:19.691Z,2.92
2023-05-01T22:20:47.848Z,1.30
2023-05-01T22:23:15.792Z,4.38
2023-05-01T22:25:44.038Z,4.82
2023-05-01T22:28:12.013Z,5.78
2023-05-01T22:30:40.049Z,4.90
2023-05-01T22:33:08.108Z,5.07
2023-05-01T22:35:36.191Z,8.15
2023-05-01T22:38:04.199Z,4.70
2023-05-01T22:40:32.328Z,4.47
2023-05-01T22:43:00.600Z,3.92
2023-05-01T22:45:28.607Z,3.58
2023-05-01T22:47:56.680Z,2.45
2023-05-01T22:50:24.772Z,4.82
2023-05-01T22:52:53.131Z,2.28
2023-05-01T22:55:21.123Z,2.70
2023-05-01T22:57:49.417Z,2.08
2023-05-01T23:00:17.474Z,2.20
2023-05-01T23:02:45.714Z,1.33
2023-05-01T23:05:13.737Z,0.88
2023-05-01T23:07:41.723Z,1.30
2023-05-01T23:10:10.385Z,1.00
2023-05-01T23:12:43.616Z,1.58
2023-05-01T23:15:17.210Z,1.60
2023-05-01T23:17:46.383Z,2.75
2023-05-01T23:20:21.278Z,1.20
2023-05-01T23:22:50.330Z,1.13
2023-05-01T23:25:25.777Z,2.97
2023-05-01T23:27:56.653Z,0.75
2023-05-01T23:30:24.812Z,1.58
2023-05-01T23:32:54.656Z,1.20
2023-05-01T23:35:25.318Z,1.92
2023-05-01T23:37:54.101Z,1.48
2023-05-01T23:40:22.242Z,4.38
2023-05-01T23:42:50.463Z,10.60
2023-05-01T23:45:19.028Z,4.63
2023-05-01T23:47:47.132Z,4.60
2023-05-01T23:50:34.003Z,4.90
2023-05-01T23:53:09.868Z,6.75
2023-05-01T23:55:43.569Z,8.88
2023-05-01T23:58:13.702Z,3.65
